sensor_id;sensor_type;location;lat;lon;timestamp;P1;durP1;ratioP1;P2;durP2;ratioP2
41687;SDS011;27371;42.686;23.362;2023-05-07T00:00:17;11.45;;;7.20;;
41687;SDS011;27371;42.686;23.362;2023-05-07T00:02:44;12.98;;;6.47;;
41687;SDS011;27371;42.686;23.362;2023-05-07T00:05:11;8.32;;;5.80;;
41687;SDS011;27371;42.686;23.362;2023-05-07T00:07:37;10.77;;;6.78;;
41687;SDS011;27371;42.686;23.362;2023-05-07T00:10:02;9.95;;;6.35;;
41687;SDS011;27371;42.686;23.362;2023-05-07T00:12:28;9.13;;;6.18;;
41687;SDS011;27371;42.686;23.362;2023-05-07T00:14:56;14.30;;;6.50;;
41687;SDS011;27371;42.686;23.362;2023-05-07T00:17:22;12.00;;;6.75;;
41687;SDS011;27371;42.686;23.362;2023-05-07T00:19:48;9.43;;;7.07;;
41687;SDS011;27371;42.686;23.362;2023-05-07T00:22:13;9.43;;;7.30;;
41687;SDS011;27371;42.686;23.362;2023-05-07T00:24:39;10.48;;;8.27;;
41687;SDS011;27371;42.686;23.362;2023-05-07T00:27:04;11.25;;;6.30;;
41687;SDS011;27371;42.686;23.362;2023-05-07T00:29:30;9.07;;;5.82;;
41687;SDS011;27371;42.686;23.362;2023-05-07T00:31:55;8.52;;;6.75;;
41687;SDS011;27371;42.686;23.362;2023-05-07T00:34:21;7.50;;;5.47;;
41687;SDS011;27371;42.686;23.362;2023-05-07T00:36:47;8.65;;;6.28;;
41687;SDS011;27371;42.686;23.362;2023-05-07T00:39:13;9.60;;;6.68;;
41687;SDS011;27371;42.686;23.362;2023-05-07T00:41:38;10.18;;;6.97;;
41687;SDS011;27371;42.686;23.362;2023-05-07T00:44:04;10.27;;;7.05;;
41687;SDS011;27371;42.686;23.362;2023-05-07T00:46:29;10.50;;;6.75;;
41687;SDS011;27371;42.686;23.362;2023-05-07T00:48:56;9.05;;;6.57;;
41687;SDS011;27371;42.686;23.362;2023-05-07T00:51:22;10.45;;;6.97;;
41687;SDS011;27371;42.686;23.362;2023-05-07T00:53:50;10.70;;;7.03;;
41687;SDS011;27371;42.686;23.362;2023-05-07T00:56:19;11.52;;;7.40;;
41687;SDS011;27371;42.686;23.362;2023-05-07T00:58:46;13.18;;;7.50;;
41687;SDS011;27371;42.686;23.362;2023-05-07T01:01:12;10.10;;;7.78;;
41687;SDS011;27371;42.686;23.362;2023-05-07T01:03:38;11.77;;;6.25;;
41687;SDS011;27371;42.686;23.362;2023-05-07T01:06:03;8.80;;;5.85;;
41687;SDS011;27371;42.686;23.362;2023-05-07T01:08:31;8.40;;;5.45;;
41687;SDS011;27371;42.686;23.362;2023-05-07T01:10:57;9.20;;;5.00;;
41687;SDS011;27371;42.686;23.362;2023-05-07T01:13:24;7.07;;;4.43;;
41687;SDS011;27371;42.686;23.362;2023-05-07T01:15:50;6.22;;;4.32;;
41687;SDS011;27371;42.686;23.362;2023-05-07T01:18:15;9.05;;;4.20;;
41687;SDS011;27371;42.686;23.362;2023-05-07T01:20:44;6.78;;;4.68;;
41687;SDS011;27371;42.686;23.362;2023-05-07T01:23:10;8.68;;;4.10;;
41687;SDS011;27371;42.686;23.362;2023-05-07T01:25:37;5.95;;;3.97;;
41687;SDS011;27371;42.686;23.362;2023-05-07T01:28:02;9.70;;;4.35;;
41687;SDS011;27371;42.686;23.362;2023-05-07T01:30:28;4.13;;;3.42;;
41687;SDS011;27371;42.686;23.362;2023-05-07T01:33:08;5.78;;;3.85;;
41687;SDS011;27371;42.686;23.362;2023-05-07T01:35:37;5.78;;;3.75;;
41687;SDS011;27371;42.686;23.362;2023-05-07T01:38:05;6.95;;;3.38;;
41687;SDS011;27371;42.686;23.362;2023-05-07T01:40:32;7.15;;;3.53;;
41687;SDS011;27371;42.686;23.362;2023-05-07T01:42:59;5.35;;;4.05;;
41687;SDS011;27371;42.686;23.362;2023-05-07T01:45:25;5.75;;;3.83;;
41687;SDS011;27371;42.686;23.362;2023-05-07T01:47:51;6.50;;;4.05;;
41687;SDS011;27371;42.686;23.362;2023-05-07T01:50:18;4.50;;;3.70;;
41687;SDS011;27371;42.686;23.362;2023-05-07T01:52:44;7.13;;;4.00;;
41687;SDS011;27371;42.686;23.362;2023-05-07T01:55:09;10.15;;;5.93;;
41687;SDS011;27371;42.686;23.362;2023-05-07T01:57:36;6.20;;;4.85;;
41687;SDS011;27371;42.686;23.362;2023-05-07T02:00:01;7.72;;;5.47;;
41687;SDS011;27371;42.686;23.362;2023-05-07T02:02:31;8.23;;;5.50;;
41687;SDS011;27371;42.686;23.362;2023-05-07T02:04:56;8.73;;;5.90;;
41687;SDS011;27371;42.686;23.362;2023-05-07T02:07:22;8.18;;;5.70;;
41687;SDS011;27371;42.686;23.362;2023-05-07T02:09:47;8.00;;;5.65;;
41687;SDS011;27371;42.686;23.362;2023-05-07T02:12:13;8.40;;;5.22;;
41687;SDS011;27371;42.686;23.362;2023-05-07T02:14:38;7.75;;;5.45;;
41687;SDS011;27371;42.686;23.362;2023-05-07T02:17:04;7.78;;;5.40;;
41687;SDS011;27371;42.686;23.362;2023-05-07T02:19:30;9.38;;;5.45;;
41687;SDS011;27371;42.686;23.362;2023-05-07T02:21:55;7.60;;;5.55;;
41687;SDS011;27371;42.686;23.362;2023-05-07T02:24:21;6.32;;;5.40;;
41687;SDS011;27371;42.686;23.362;2023-05-07T02:26:46;7.65;;;6.10;;
41687;SDS011;27371;42.686;23.362;2023-05-07T02:29:12;10.73;;;6.25;;
41687;SDS011;27371;42.686;23.362;2023-05-07T02:31:37;8.52;;;6.50;;
41687;SDS011;27371;42.686;23.362;2023-05-07T02:34:02;9.48;;;7.65;;
41687;SDS011;27371;42.686;23.362;2023-05-07T02:36:29;9.00;;;7.25;;
41687;SDS011;27371;42.686;23.362;2023-05-07T02:38:54;11.38;;;8.27;;
41687;SDS011;27371;42.686;23.362;2023-05-07T02:41:20;10.52;;;9.18;;
41687;SDS011;27371;42.686;23.362;2023-05-07T02:43:45;12.27;;;8.60;;
41687;SDS011;27371;42.686;23.362;2023-05-07T02:46:11;14.77;;;9.93;;
41687;SDS011;27371;42.686;23.362;2023-05-07T02:48:37;10.82;;;8.73;;
41687;SDS011;27371;42.686;23.362;2023-05-07T02:51:02;12.00;;;8.77;;
41687;SDS011;27371;42.686;23.362;2023-05-07T02:53:28;11.70;;;8.68;;
41687;SDS011;27371;42.686;23.362;2023-05-07T02:55:55;13.93;;;9.60;;
41687;SDS011;27371;42.686;23.362;2023-05-07T02:58:22;12.25;;;9.73;;
41687;SDS011;27371;42.686;23.362;2023-05-07T03:00:47;10.43;;;9.32;;
41687;SDS011;27371;42.686;23.362;2023-05-07T03:03:13;13.88;;;9.75;;
41687;SDS011;27371;42.686;23.362;2023-05-07T03:05:38;13.32;;;9.10;;
41687;SDS011;27371;42.686;23.362;2023-05-07T03:08:04;13.57;;;9.70;;
41687;SDS011;27371;42.686;23.362;2023-05-07T03:10:30;14.85;;;10.07;;
41687;SDS011;27371;42.686;23.362;2023-05-07T03:12:55;10.48;;;9.20;;
41687;SDS011;27371;42.686;23.362;2023-05-07T03:15:21;11.63;;;10.02;;
41687;SDS011;27371;42.686;23.362;2023-05-07T03:17:49;12.90;;;10.45;;
41687;SDS011;27371;42.686;23.362;2023-05-07T03:20:15;11.20;;;9.95;;
41687;SDS011;27371;42.686;23.362;2023-05-07T03:22:41;11.60;;;10.02;;
41687;SDS011;27371;42.686;23.362;2023-05-07T03:25:06;13.18;;;10.50;;
41687;SDS011;27371;42.686;23.362;2023-05-07T03:27:32;15.02;;;10.40;;
41687;SDS011;27371;42.686;23.362;2023-05-07T03:29:58;12.88;;;10.32;;
41687;SDS011;27371;42.686;23.362;2023-05-07T03:32:23;12.07;;;9.77;;
41687;SDS011;27371;42.686;23.362;2023-05-07T03:34:49;15.60;;;11.57;;
41687;SDS011;27371;42.686;23.362;2023-05-07T03:37:15;12.35;;;10.60;;
41687;SDS011;27371;42.686;23.362;2023-05-07T03:39:40;14.07;;;10.88;;
41687;SDS011;27371;42.686;23.362;2023-05-07T03:42:06;12.48;;;9.88;;
41687;SDS011;27371;42.686;23.362;2023-05-07T03:44:32;13.82;;;10.32;;
41687;SDS011;27371;42.686;23.362;2023-05-07T03:46:57;14.48;;;11.10;;
41687;SDS011;27371;42.686;23.362;2023-05-07T03:49:25;14.27;;;10.77;;
41687;SDS011;27371;42.686;23.362;2023-05-07T03:51:51;13.68;;;10.32;;
41687;SDS011;27371;42.686;23.362;2023-05-07T03:54:17;14.13;;;9.88;;
41687;SDS011;27371;42.686;23.362;2023-05-07T03:56:42;11.18;;;9.43;;
41687;SDS011;27371;42.686;23.362;2023-05-07T03:59:08;11.63;;;8.45;;
41687;SDS011;27371;42.686;23.362;2023-05-07T04:01:34;11.57;;;8.82;;
41687;SDS011;27371;42.686;23.362;2023-05-07T04:03:59;9.85;;;7.97;;
41687;SDS011;27371;42.686;23.362;2023-05-07T04:06:24;10.48;;;7.55;;
41687;SDS011;27371;42.686;23.362;2023-05-07T04:08:50;10.30;;;7.88;;
41687;SDS011;27371;42.686;23.362;2023-05-07T04:11:15;10.15;;;7.57;;
41687;SDS011;27371;42.686;23.362;2023-05-07T04:13:41;10.73;;;8.02;;
41687;SDS011;27371;42.686;23.362;2023-05-07T04:16:07;11.85;;;8.02;;
41687;SDS011;27371;42.686;23.362;2023-05-07T04:18:33;9.95;;;7.93;;
41687;SDS011;27371;42.686;23.362;2023-05-07T04:20:58;9.57;;;7.30;;
41687;SDS011;27371;42.686;23.362;2023-05-07T04:23:24;10.70;;;7.25;;
41687;SDS011;27371;42.686;23.362;2023-05-07T04:25:50;7.88;;;7.07;;
41687;SDS011;27371;42.686;23.362;2023-05-07T04:28:15;11.93;;;7.28;;
41687;SDS011;27371;42.686;23.362;2023-05-07T04:30:41;7.75;;;6.95;;
41687;SDS011;27371;42.686;23.362;2023-05-07T04:33:07;11.40;;;7.20;;
41687;SDS011;27371;42.686;23.362;2023-05-07T04:35:32;14.18;;;6.82;;
41687;SDS011;27371;42.686;23.362;2023-05-07T04:37:58;8.48;;;6.65;;
41687;SDS011;27371;42.686;23.362;2023-05-07T04:40:23;12.48;;;7.13;;
41687;SDS011;27371;42.686;23.362;2023-05-07T04:42:49;10.60;;;6.60;;
41687;SDS011;27371;42.686;23.362;2023-05-07T04:45:15;13.73;;;6.55;;
41687;SDS011;27371;42.686;23.362;2023-05-07T04:47:40;10.00;;;6.20;;
41687;SDS011;27371;42.686;23.362;2023-05-07T04:50:06;10.68;;;6.57;;
41687;SDS011;27371;42.686;23.362;2023-05-07T04:52:33;9.90;;;6.68;;
41687;SDS011;27371;42.686;23.362;2023-05-07T04:54:59;10.82;;;6.57;;
41687;SDS011;27371;42.686;23.362;2023-05-07T04:57:26;11.65;;;6.80;;
41687;SDS011;27371;42.686;23.362;2023-05-07T04:59:52;11.30;;;6.10;;
41687;SDS011;27371;42.686;23.362;2023-05-07T05:02:19;11.75;;;6.45;;
41687;SDS011;27371;42.686;23.362;2023-05-07T05:04:44;12.40;;;6.70;;
41687;SDS011;27371;42.686;23.362;2023-05-07T05:07:10;8.93;;;6.60;;
41687;SDS011;27371;42.686;23.362;2023-05-07T05:09:35;7.53;;;6.07;;
41687;SDS011;27371;42.686;23.362;2023-05-07T05:12:01;9.77;;;6.63;;
41687;SDS011;27371;42.686;23.362;2023-05-07T05:14:26;11.00;;;6.60;;
41687;SDS011;27371;42.686;23.362;2023-05-07T05:16:52;10.85;;;7.20;;
41687;SDS011;27371;42.686;23.362;2023-05-07T05:19:18;11.52;;;6.63;;
41687;SDS011;27371;42.686;23.362;2023-05-07T05:21:43;10.15;;;6.22;;
41687;SDS011;27371;42.686;23.362;2023-05-07T05:24:09;7.95;;;6.47;;
41687;SDS011;27371;42.686;23.362;2023-05-07T05:26:35;11.73;;;6.75;;
41687;SDS011;27371;42.686;23.362;2023-05-07T05:29:00;11.25;;;6.55;;
41687;SDS011;27371;42.686;23.362;2023-05-07T05:31:26;11.32;;;6.70;;
41687;SDS011;27371;42.686;23.362;2023-05-07T05:33:51;8.98;;;7.00;;
41687;SDS011;27371;42.686;23.362;2023-05-07T05:36:17;7.68;;;6.47;;
41687;SDS011;27371;42.686;23.362;2023-05-07T05:38:42;8.38;;;6.75;;
41687;SDS011;27371;42.686;23.362;2023-05-07T05:41:09;7.53;;;6.75;;
41687;SDS011;27371;42.686;23.362;2023-05-07T05:43:35;8.80;;;7.07;;
41687;SDS011;27371;42.686;23.362;2023-05-07T05:46:00;10.35;;;7.18;;
41687;SDS011;27371;42.686;23.362;2023-05-07T05:48:26;11.80;;;6.50;;
41687;SDS011;27371;42.686;23.362;2023-05-07T05:50:51;9.20;;;7.00;;
41687;SDS011;27371;42.686;23.362;2023-05-07T05:53:16;9.70;;;7.13;;
41687;SDS011;27371;42.686;23.362;2023-05-07T05:55:42;8.68;;;6.43;;
41687;SDS011;27371;42.686;23.362;2023-05-07T05:58:08;9.68;;;6.72;;
41687;SDS011;27371;42.686;23.362;2023-05-07T06:00:34;11.85;;;6.43;;
41687;SDS011;27371;42.686;23.362;2023-05-07T06:03:00;9.98;;;7.32;;
41687;SDS011;27371;42.686;23.362;2023-05-07T06:05:25;7.10;;;6.05;;
41687;SDS011;27371;42.686;23.362;2023-05-07T06:07:51;7.45;;;6.45;;
41687;SDS011;27371;42.686;23.362;2023-05-07T06:10:16;7.32;;;6.53;;
41687;SDS011;27371;42.686;23.362;2023-05-07T06:12:42;12.05;;;6.75;;
41687;SDS011;27371;42.686;23.362;2023-05-07T06:15:08;7.43;;;5.95;;
41687;SDS011;27371;42.686;23.362;2023-05-07T06:17:33;8.25;;;6.25;;
41687;SDS011;27371;42.686;23.362;2023-05-07T06:19:59;10.38;;;6.55;;
41687;SDS011;27371;42.686;23.362;2023-05-07T06:22:25;9.45;;;7.15;;
41687;SDS011;27371;42.686;23.362;2023-05-07T06:24:50;11.38;;;6.60;;
41687;SDS011;27371;42.686;23.362;2023-05-07T06:27:16;10.55;;;7.20;;
41687;SDS011;27371;42.686;23.362;2023-05-07T06:29:41;11.60;;;7.78;;
41687;SDS011;27371;42.686;23.362;2023-05-07T06:32:10;10.35;;;7.25;;
41687;SDS011;27371;42.686;23.362;2023-05-07T06:34:37;12.20;;;7.65;;
41687;SDS011;27371;42.686;23.362;2023-05-07T06:37:03;10.15;;;7.15;;
41687;SDS011;27371;42.686;23.362;2023-05-07T06:39:28;10.57;;;6.88;;
41687;SDS011;27371;42.686;23.362;2023-05-07T06:41:54;8.77;;;6.57;;
41687;SDS011;27371;42.686;23.362;2023-05-07T06:44:20;10.00;;;6.90;;
41687;SDS011;27371;42.686;23.362;2023-05-07T06:46:45;9.75;;;7.05;;
41687;SDS011;27371;42.686;23.362;2023-05-07T06:49:14;9.48;;;6.80;;
41687;SDS011;27371;42.686;23.362;2023-05-07T06:51:40;11.77;;;7.80;;
41687;SDS011;27371;42.686;23.362;2023-05-07T06:54:06;11.07;;;7.90;;
41687;SDS011;27371;42.686;23.362;2023-05-07T06:56:31;11.52;;;8.10;;
41687;SDS011;27371;42.686;23.362;2023-05-07T06:58:59;8.93;;;7.18;;
41687;SDS011;27371;42.686;23.362;2023-05-07T07:01:25;13.70;;;7.57;;
41687;SDS011;27371;42.686;23.362;2023-05-07T07:03:51;11.93;;;8.48;;
41687;SDS011;27371;42.686;23.362;2023-05-07T07:06:16;12.52;;;8.82;;
41687;SDS011;27371;42.686;23.362;2023-05-07T07:08:42;10.65;;;7.75;;
41687;SDS011;27371;42.686;23.362;2023-05-07T07:11:08;12.32;;;6.72;;
41687;SDS011;27371;42.686;23.362;2023-05-07T07:13:33;11.90;;;7.70;;
41687;SDS011;27371;42.686;23.362;2023-05-07T07:15:59;14.27;;;8.23;;
41687;SDS011;27371;42.686;23.362;2023-05-07T07:18:25;11.52;;;7.68;;
41687;SDS011;27371;42.686;23.362;2023-05-07T07:20:51;10.07;;;7.43;;
41687;SDS011;27371;42.686;23.362;2023-05-07T07:23:16;12.75;;;7.13;;
41687;SDS011;27371;42.686;23.362;2023-05-07T07:25:42;11.05;;;7.65;;
41687;SDS011;27371;42.686;23.362;2023-05-07T07:28:07;17.77;;;8.23;;
41687;SDS011;27371;42.686;23.362;2023-05-07T07:30:33;11.15;;;7.50;;
41687;SDS011;27371;42.686;23.362;2023-05-07T07:32:58;11.63;;;6.70;;
41687;SDS011;27371;42.686;23.362;2023-05-07T07:35:31;10.90;;;6.80;;
41687;SDS011;27371;42.686;23.362;2023-05-07T07:37:57;10.35;;;7.00;;
41687;SDS011;27371;42.686;23.362;2023-05-07T07:40:23;10.13;;;7.63;;
41687;SDS011;27371;42.686;23.362;2023-05-07T07:42:50;15.85;;;7.60;;
41687;SDS011;27371;42.686;23.362;2023-05-07T07:45:16;9.75;;;7.95;;
41687;SDS011;27371;42.686;23.362;2023-05-07T07:47:41;15.95;;;10.23;;
41687;SDS011;27371;42.686;23.362;2023-05-07T07:50:07;17.20;;;11.18;;
41687;SDS011;27371;42.686;23.362;2023-05-07T07:52:34;9.48;;;7.15;;
41687;SDS011;27371;42.686;23.362;2023-05-07T07:54:59;10.27;;;7.72;;
41687;SDS011;27371;42.686;23.362;2023-05-07T07:57:25;11.25;;;7.20;;
41687;SDS011;27371;42.686;23.362;2023-05-07T07:59:51;11.38;;;7.05;;
41687;SDS011;27371;42.686;23.362;2023-05-07T08:02:16;10.32;;;6.70;;
41687;SDS011;27371;42.686;23.362;2023-05-07T08:04:42;9.88;;;6.82;;
41687;SDS011;27371;42.686;23.362;2023-05-07T08:07:08;11.00;;;6.28;;
41687;SDS011;27371;42.686;23.362;2023-05-07T08:09:34;9.30;;;5.93;;
41687;SDS011;27371;42.686;23.362;2023-05-07T08:12:00;10.32;;;6.53;;
41687;SDS011;27371;42.686;23.362;2023-05-07T08:14:26;10.02;;;6.60;;
41687;SDS011;27371;42.686;23.362;2023-05-07T08:16:53;12.02;;;6.55;;
41687;SDS011;27371;42.686;23.362;2023-05-07T08:19:19;8.25;;;6.32;;
41687;SDS011;27371;42.686;23.362;2023-05-07T08:21:45;11.18;;;6.30;;
41687;SDS011;27371;42.686;23.362;2023-05-07T08:24:12;9.75;;;5.75;;
41687;SDS011;27371;42.686;23.362;2023-05-07T08:26:41;11.05;;;6.03;;
41687;SDS011;27371;42.686;23.362;2023-05-07T08:29:07;13.35;;;6.28;;
41687;SDS011;27371;42.686;23.362;2023-05-07T08:31:33;9.57;;;6.35;;
41687;SDS011;27371;42.686;23.362;2023-05-07T08:33:59;9.43;;;5.57;;
41687;SDS011;27371;42.686;23.362;2023-05-07T08:36:25;8.77;;;6.75;;
41687;SDS011;27371;42.686;23.362;2023-05-07T08:38:51;9.18;;;5.85;;
41687;SDS011;27371;42.686;23.362;2023-05-07T08:41:16;10.05;;;5.57;;
41687;SDS011;27371;42.686;23.362;2023-05-07T08:43:42;8.73;;;6.00;;
41687;SDS011;27371;42.686;23.362;2023-05-07T08:46:11;9.50;;;6.18;;
41687;SDS011;27371;42.686;23.362;2023-05-07T08:48:43;7.55;;;4.97;;
41687;SDS011;27371;42.686;23.362;2023-05-07T08:51:12;10.98;;;4.53;;
41687;SDS011;27371;42.686;23.362;2023-05-07T08:53:38;7.68;;;4.18;;
41687;SDS011;27371;42.686;23.362;2023-05-07T08:56:06;8.30;;;4.18;;
41687;SDS011;27371;42.686;23.362;2023-05-07T08:58:33;7.93;;;4.25;;
41687;SDS011;27371;42.686;23.362;2023-05-07T09:00:59;5.30;;;4.50;;
41687;SDS011;27371;42.686;23.362;2023-05-07T09:03:28;7.63;;;4.20;;
41687;SDS011;27371;42.686;23.362;2023-05-07T09:05:55;4.75;;;3.50;;
41687;SDS011;27371;42.686;23.362;2023-05-07T09:08:23;7.68;;;3.35;;
41687;SDS011;27371;42.686;23.362;2023-05-07T09:10:51;5.95;;;3.50;;
41687;SDS011;27371;42.686;23.362;2023-05-07T09:13:19;5.88;;;3.53;;
41687;SDS011;27371;42.686;23.362;2023-05-07T09:15:45;17.83;;;12.13;;
41687;SDS011;27371;42.686;23.362;2023-05-07T09:18:10;7.55;;;5.45;;
41687;SDS011;27371;42.686;23.362;2023-05-07T09:20:37;4.95;;;2.35;;
41687;SDS011;27371;42.686;23.362;2023-05-07T09:23:03;7.93;;;3.22;;
41687;SDS011;27371;42.686;23.362;2023-05-07T09:25:32;6.88;;;3.95;;
41687;SDS011;27371;42.686;23.362;2023-05-07T09:27:59;6.70;;;3.72;;
41687;SDS011;27371;42.686;23.362;2023-05-07T09:30:28;7.43;;;3.38;;
41687;SDS011;27371;42.686;23.362;2023-05-07T09:32:58;3.75;;;2.75;;
41687;SDS011;27371;42.686;23.362;2023-05-07T09:35:25;4.03;;;2.55;;
41687;SDS011;27371;42.686;23.362;2023-05-07T09:37:59;5.07;;;3.08;;
41687;SDS011;27371;42.686;23.362;2023-05-07T09:40:29;5.68;;;3.10;;
41687;SDS011;27371;42.686;23.362;2023-05-07T09:42:55;5.05;;;3.20;;
41687;SDS011;27371;42.686;23.362;2023-05-07T09:45:22;3.47;;;2.42;;
41687;SDS011;27371;42.686;23.362;2023-05-07T09:47:50;6.13;;;3.28;;
41687;SDS011;27371;42.686;23.362;2023-05-07T09:50:21;7.57;;;4.38;;
41687;SDS011;27371;42.686;23.362;2023-05-07T09:52:51;7.57;;;3.28;;
41687;SDS011;27371;42.686;23.362;2023-05-07T09:55:18;4.78;;;3.10;;
41687;SDS011;27371;42.686;23.362;2023-05-07T09:57:44;5.57;;;2.88;;
41687;SDS011;27371;42.686;23.362;2023-05-07T10:00:11;5.18;;;3.10;;
41687;SDS011;27371;42.686;23.362;2023-05-07T10:02:37;8.77;;;2.75;;
41687;SDS011;27371;42.686;23.362;2023-05-07T10:05:11;3.53;;;2.35;;
41687;SDS011;27371;42.686;23.362;2023-05-07T10:07:39;5.47;;;2.38;;
41687;SDS011;27371;42.686;23.362;2023-05-07T10:10:06;4.00;;;2.40;;
41687;SDS011;27371;42.686;23.362;2023-05-07T10:12:32;6.88;;;2.50;;
41687;SDS011;27371;42.686;23.362;2023-05-07T10:15:04;7.82;;;2.30;;
41687;SDS011;27371;42.686;23.362;2023-05-07T10:17:30;7.78;;;2.53;;
41687;SDS011;27371;42.686;23.362;2023-05-07T10:19:57;3.70;;;2.17;;
41687;SDS011;27371;42.686;23.362;2023-05-07T10:22:22;7.03;;;2.42;;
41687;SDS011;27371;42.686;23.362;2023-05-07T10:24:51;3.55;;;2.30;;
41687;SDS011;27371;42.686;23.362;2023-05-07T10:27:19;7.28;;;2.95;;
41687;SDS011;27371;42.686;23.362;2023-05-07T10:30:08;5.05;;;2.70;;
41687;SDS011;27371;42.686;23.362;2023-05-07T10:32:50;3.97;;;2.55;;
41687;SDS011;27371;42.686;23.362;2023-05-07T10:35:20;4.55;;;2.58;;
41687;SDS011;27371;42.686;23.362;2023-05-07T10:37:51;5.95;;;3.03;;
41687;SDS011;27371;42.686;23.362;2023-05-07T10:40:18;4.57;;;2.60;;
41687;SDS011;27371;42.686;23.362;2023-05-07T10:45:27;6.00;;;2.72;;
41687;SDS011;27371;42.686;23.362;2023-05-07T10:48:06;5.32;;;2.72;;
41687;SDS011;27371;42.686;23.362;2023-05-07T10:50:33;5.43;;;2.38;;
41687;SDS011;27371;42.686;23.362;2023-05-07T10:55:46;4.57;;;2.92;;
41687;SDS011;27371;42.686;23.362;2023-05-07T11:00:59;4.22;;;2.20;;
41687;SDS011;27371;42.686;23.362;2023-05-07T11:03:26;4.68;;;2.17;;
41687;SDS011;27371;42.686;23.362;2023-05-07T11:06:09;3.92;;;2.58;;
41687;SDS011;27371;42.686;23.362;2023-05-07T11:12:05;6.05;;;2.92;;
41687;SDS011;27371;42.686;23.362;2023-05-07T11:14:40;5.13;;;2.50;;
41687;SDS011;27371;42.686;23.362;2023-05-07T11:17:07;3.55;;;2.65;;
41687;SDS011;27371;42.686;23.362;2023-05-07T11:24:57;2.92;;;2.20;;
41687;SDS011;27371;42.686;23.362;2023-05-07T11:27:28;5.68;;;2.30;;
41687;SDS011;27371;42.686;23.362;2023-05-07T11:29:54;3.70;;;2.35;;
41687;SDS011;27371;42.686;23.362;2023-05-07T11:32:23;5.32;;;2.17;;
41687;SDS011;27371;42.686;23.362;2023-05-07T11:34:56;4.18;;;2.20;;
41687;SDS011;27371;42.686;23.362;2023-05-07T11:37:23;6.43;;;2.55;;
41687;SDS011;27371;42.686;23.362;2023-05-07T11:39:49;6.07;;;2.30;;
41687;SDS011;27371;42.686;23.362;2023-05-07T11:42:33;4.22;;;2.30;;
41687;SDS011;27371;42.686;23.362;2023-05-07T11:45:00;4.95;;;2.42;;
41687;SDS011;27371;42.686;23.362;2023-05-07T11:47:26;9.10;;;2.50;;
41687;SDS011;27371;42.686;23.362;2023-05-07T11:49:54;2.67;;;2.20;;
41687;SDS011;27371;42.686;23.362;2023-05-07T11:52:21;5.32;;;2.83;;
41687;SDS011;27371;42.686;23.362;2023-05-07T11:54:55;5.57;;;2.05;;
41687;SDS011;27371;42.686;23.362;2023-05-07T11:57:22;7.88;;;2.45;;
41687;SDS011;27371;42.686;23.362;2023-05-07T11:59:56;3.78;;;1.98;;
41687;SDS011;27371;42.686;23.362;2023-05-07T12:02:25;3.92;;;2.03;;
41687;SDS011;27371;42.686;23.362;2023-05-07T12:04:51;5.65;;;2.60;;
41687;SDS011;27371;42.686;23.362;2023-05-07T12:07:17;4.90;;;2.40;;
41687;SDS011;27371;42.686;23.362;2023-05-07T12:09:44;3.22;;;1.92;;
41687;SDS011;27371;42.686;23.362;2023-05-07T12:12:11;3.10;;;2.25;;
41687;SDS011;27371;42.686;23.362;2023-05-07T12:14:37;6.18;;;2.45;;
41687;SDS011;27371;42.686;23.362;2023-05-07T12:17:09;3.47;;;2.28;;
41687;SDS011;27371;42.686;23.362;2023-05-07T12:19:39;4.05;;;2.17;;
41687;SDS011;27371;42.686;23.362;2023-05-07T12:22:09;4.78;;;1.70;;
41687;SDS011;27371;42.686;23.362;2023-05-07T12:24:43;5.18;;;2.40;;
41687;SDS011;27371;42.686;23.362;2023-05-07T12:27:09;5.82;;;2.00;;
41687;SDS011;27371;42.686;23.362;2023-05-07T12:29:35;3.65;;;2.00;;
41687;SDS011;27371;42.686;23.362;2023-05-07T12:32:00;3.22;;;2.20;;
41687;SDS011;27371;42.686;23.362;2023-05-07T12:34:26;2.55;;;2.05;;
41687;SDS011;27371;42.686;23.362;2023-05-07T12:36:51;3.53;;;2.30;;
41687;SDS011;27371;42.686;23.362;2023-05-07T12:39:18;3.03;;;1.90;;
41687;SDS011;27371;42.686;23.362;2023-05-07T12:41:56;2.92;;;1.50;;
41687;SDS011;27371;42.686;23.362;2023-05-07T12:44:24;6.75;;;2.20;;
41687;SDS011;27371;42.686;23.362;2023-05-07T12:47:02;5.38;;;1.90;;
41687;SDS011;27371;42.686;23.362;2023-05-07T12:49:28;2.65;;;1.45;;
41687;SDS011;27371;42.686;23.362;2023-05-07T12:51:54;1.88;;;1.35;;
41687;SDS011;27371;42.686;23.362;2023-05-07T12:54:30;2.13;;;1.23;;
41687;SDS011;27371;42.686;23.362;2023-05-07T12:57:09;3.97;;;1.70;;
41687;SDS011;27371;42.686;23.362;2023-05-07T12:59:41;2.28;;;1.35;;
41687;SDS011;27371;42.686;23.362;2023-05-07T13:02:07;3.78;;;1.52;;
41687;SDS011;27371;42.686;23.362;2023-05-07T13:04:33;2.03;;;1.55;;
41687;SDS011;27371;42.686;23.362;2023-05-07T13:06:59;2.47;;;1.15;;
41687;SDS011;27371;42.686;23.362;2023-05-07T13:09:25;3.00;;;1.35;;
41687;SDS011;27371;42.686;23.362;2023-05-07T13:11:51;2.67;;;1.35;;
41687;SDS011;27371;42.686;23.362;2023-05-07T13:14:16;2.53;;;1.55;;
41687;SDS011;27371;42.686;23.362;2023-05-07T13:16:42;3.97;;;1.63;;
41687;SDS011;27371;42.686;23.362;2023-05-07T13:19:07;2.28;;;1.63;;
41687;SDS011;27371;42.686;23.362;2023-05-07T13:21:33;2.42;;;1.30;;
41687;SDS011;27371;42.686;23.362;2023-05-07T13:23:58;2.53;;;1.58;;
41687;SDS011;27371;42.686;23.362;2023-05-07T13:26:24;3.58;;;1.50;;
41687;SDS011;27371;42.686;23.362;2023-05-07T13:28:50;2.67;;;1.48;;
41687;SDS011;27371;42.686;23.362;2023-05-07T13:31:16;4.43;;;1.90;;
41687;SDS011;27371;42.686;23.362;2023-05-07T13:33:42;4.00;;;2.10;;
41687;SDS011;27371;42.686;23.362;2023-05-07T13:36:08;5.15;;;1.90;;
41687;SDS011;27371;42.686;23.362;2023-05-07T13:38:34;4.85;;;2.38;;
41687;SDS011;27371;42.686;23.362;2023-05-07T13:41:00;2.78;;;1.70;;
41687;SDS011;27371;42.686;23.362;2023-05-07T13:43:25;4.03;;;1.50;;
41687;SDS011;27371;42.686;23.362;2023-05-07T13:45:51;5.13;;;1.67;;
41687;SDS011;27371;42.686;23.362;2023-05-07T13:48:16;7.05;;;2.30;;
41687;SDS011;27371;42.686;23.362;2023-05-07T13:50:42;4.07;;;1.50;;
41687;SDS011;27371;42.686;23.362;2023-05-07T13:53:08;4.70;;;1.65;;
41687;SDS011;27371;42.686;23.362;2023-05-07T13:55:33;3.90;;;1.40;;
41687;SDS011;27371;42.686;23.362;2023-05-07T13:57:59;5.13;;;1.77;;
41687;SDS011;27371;42.686;23.362;2023-05-07T14:00:26;4.85;;;2.05;;
41687;SDS011;27371;42.686;23.362;2023-05-07T14:02:53;3.78;;;1.67;;
41687;SDS011;27371;42.686;23.362;2023-05-07T14:05:19;4.38;;;1.80;;
41687;SDS011;27371;42.686;23.362;2023-05-07T14:07:44;3.90;;;1.52;;
41687;SDS011;27371;42.686;23.362;2023-05-07T14:10:10;4.35;;;1.60;;
41687;SDS011;27371;42.686;23.362;2023-05-07T14:12:36;4.38;;;2.03;;
41687;SDS011;27371;42.686;23.362;2023-05-07T14:15:02;3.17;;;1.40;;
41687;SDS011;27371;42.686;23.362;2023-05-07T14:17:28;4.88;;;1.70;;
41687;SDS011;27371;42.686;23.362;2023-05-07T14:19:54;6.93;;;2.25;;
41687;SDS011;27371;42.686;23.362;2023-05-07T14:22:22;4.32;;;1.85;;
41687;SDS011;27371;42.686;23.362;2023-05-07T14:24:48;6.28;;;1.70;;
41687;SDS011;27371;42.686;23.362;2023-05-07T14:27:14;3.85;;;2.42;;
41687;SDS011;27371;42.686;23.362;2023-05-07T14:29:40;3.97;;;1.85;;
41687;SDS011;27371;42.686;23.362;2023-05-07T14:32:06;3.85;;;1.55;;
41687;SDS011;27371;42.686;23.362;2023-05-07T14:34:31;4.70;;;1.58;;
41687;SDS011;27371;42.686;23.362;2023-05-07T14:36:57;2.67;;;1.50;;
41687;SDS011;27371;42.686;23.362;2023-05-07T14:39:23;2.80;;;1.30;;
41687;SDS011;27371;42.686;23.362;2023-05-07T14:41:48;2.70;;;2.00;;